OAKBOIIE

Guest
Details From OAKB - Kabul Intl
To OIIE - Imam Khomeini Intl
Flight Number -
Tags Generated
Created
Modified
Stats Distance 890 nm / 1,647 km
Max Altitude 0 ft / 0 m
Waypoints 3
Social Downloads 1
Likes 0
Share VATSIM

Download

Looking for another format? Having issues loading an existing format? Contact us
Advertisement - Login to hide

Notes

Generated

Route

OAKB IKA OIIE

ID Type Via Altitude Latitude Longitude Leg Dist Tot Dist Heading (true) Name
O OAKB APT - 0 ft / 0 m 34.57052˚ 69.19431˚ - 0 nm - -
IKA VOR - 0 ft / 0 m 35.40967˚ 51.17847˚ 886 nm 886 nm 278° / 268° IMAM KHOMEINI VOR-DME
O OIIE APT - 0 ft / 0 m 35.42534˚ 51.12220˚ 2 nm 889 nm 289° / 289° -

Altitude Profile

Advertisement - Login to hide

Weather


0- 5 10 15 20 25 30 35+ Temperature / ° C

Clouds and Precipitation
Forecast for 2017-12-13 12:00 UTC. Updated 2 hours ago

Ground ~20,000 ft ~40,000 ft Winds

OAKB

Details ICAO OAKB (KBL)
Name Kabul Intl
Region Afghanistan
Timezone Asia/Kabul (UTC+4.5)
Stats Elevation 5,877 ft / 1,791 m (AMSL)
Location 34.565875° 69.212289°
Runways 1
Magnetic Variation 3.164° E

METAR

OAKB 130950Z 13015KT 9000 SCT040 BKN100 04/M04 Q1019 NOSIG RMK A3010 BLU BLU

Decode

TAF

Not found

Departure Runways

ID Width Length Bearing (true) Bearing (mag) Surface Threshold Offset Overrun Length
11 164 ft / 50 m 11,483 ft / 3,500 m 107.39° 104.23° Asphalt 0 ft / 0 m 144 ft / 44 m
29 164 ft / 50 m 11,483 ft / 3,500 m 287.41° 284.25° Asphalt 0 ft / 0 m 190 ft / 58 m

OIIE

Details ICAO OIIE (IKA)
Name IMAM KHOMEINI INTL
Region Iran
Timezone Asia/Tehran (UTC+3.5)
Stats Elevation 3,305 ft / 1,007 m (AMSL)
Location 35.418379° 51.143865°
Runways 2
Magnetic Variation 4.667° E

METAR

OIIE 131000Z 00000KT CAVOK 13/M09 Q1021 NOSIG

Decode

TAF

TAF OIIE 130530Z 1306/1412 14005MPS CAVOK TEMPO 1306/1309 30008MPS BECMG 1618/1320 30004MPS BECMG 1406/1408 16005MS

Decode

Destination Runways

ID Width Length Bearing (true) Bearing (mag) Surface Threshold Offset Overrun Length
11L 148 ft / 45 m 13,752 ft / 4,192 m 108.86° 104.19° Asphalt 0 ft / 0 m 394 ft / 120 m
11R 148 ft / 45 m 13,919 ft / 4,243 m 108.83° 104.16° Asphalt 0 ft / 0 m 0 ft / 0 m
29L 148 ft / 45 m 13,919 ft / 4,243 m 288.86° 284.19° Asphalt 1,972 ft / 601 m 0 ft / 0 m
29R 148 ft / 45 m 13,752 ft / 4,192 m 288.89° 284.22° Asphalt 0 ft / 0 m 394 ft / 120 m

Approach Navaids

Runway Type Ident Frequency Range Bearing (true) Bearing (mag) Slope Elevation
29R Localiser IIKA 110.30 MHz 18 nm / 33 km 288.86° 284.20° - 3,305 ft / 1,007 m (AMSL)
29R Glidescope IIKA 110.30 MHz 10 nm / 19 km 288.88° 284.21° 3.00° 3,257 ft / 993 m (AMSL)
29R DME IIKA 110.30 MHz 18 nm / 33 km - - - 3,275 ft / 998 m (AMSL)

Popular Alternatives